createdAt,value
2023-04-27T00:00:48.879Z,8.02
2023-04-27T00:04:04.345Z,7.85
2023-04-27T00:06:56.042Z,7.77
2023-04-27T00:10:18.944Z,7.72
2023-04-27T00:13:35.020Z,7.63
2023-04-27T00:16:56.873Z,7.60
2023-04-27T00:20:20.230Z,7.53
2023-04-27T00:23:47.789Z,7.53
2023-04-27T00:27:31.231Z,7.53
2023-04-27T00:30:32.767Z,7.56
2023-04-27T00:34:02.647Z,7.54
2023-04-27T00:37:14.572Z,7.50
2023-04-27T00:40:06.194Z,7.46
2023-04-27T00:43:15.204Z,7.40
2023-04-27T00:46:35.120Z,7.34
2023-04-27T00:50:18.316Z,7.30
2023-04-27T00:53:25.593Z,7.35
2023-04-27T00:57:13.585Z,7.31
2023-04-27T01:00:32.795Z,7.36
2023-04-27T01:03:52.057Z,7.39
2023-04-27T01:07:39.633Z,7.35
2023-04-27T01:11:27.573Z,7.34
2023-04-27T01:14:14.683Z,7.33
2023-04-27T01:17:32.633Z,7.39
2023-04-27T01:20:51.751Z,7.39
2023-04-27T01:24:00.313Z,7.33
2023-04-27T01:27:37.412Z,7.30
2023-04-27T01:31:05.506Z,7.24
2023-04-27T01:34:13.048Z,7.18
2023-04-27T01:37:41.086Z,7.14
2023-04-27T01:41:04.030Z,7.15
2023-04-27T01:44:23.492Z,7.11
2023-04-27T01:47:52.814Z,7.14
2023-04-27T01:51:05.974Z,7.18
2023-04-27T01:54:31.383Z,7.10
2023-04-27T01:57:56.708Z,7.06
2023-04-27T02:01:12.278Z,7.09
2023-04-27T02:04:51.619Z,7.07
2023-04-27T02:08:07.883Z,7.03
2023-04-27T02:11:27.996Z,6.97
2023-04-27T02:14:32.341Z,6.90
2023-04-27T02:17:54.087Z,6.86
2023-04-27T02:20:47.572Z,6.90
2023-04-27T02:23:36.086Z,6.94
2023-04-27T02:26:56.076Z,6.93
2023-04-27T02:30:01.560Z,6.93
2023-04-27T02:33:23.053Z,6.91
2023-04-27T02:36:13.364Z,6.84
2023-04-27T02:38:50.017Z,6.84
2023-04-27T02:41:39.691Z,6.83
2023-04-27T02:44:40.971Z,6.81
2023-04-27T02:47:43.922Z,6.81
2023-04-27T02:50:40.370Z,6.85
2023-04-27T02:53:21.358Z,6.88
2023-04-27T02:55:50.031Z,6.87
2023-04-27T02:58:23.429Z,6.86
2023-04-27T03:01:14.805Z,6.85
2023-04-27T03:04:18.827Z,6.85
2023-04-27T03:07:06.695Z,6.91
2023-04-27T03:09:52.928Z,6.89
2023-04-27T03:12:25.376Z,6.87
2023-04-27T03:15:13.611Z,6.92
2023-04-27T03:17:49.262Z,6.96
2023-04-27T03:20:27.470Z,6.84
2023-04-27T03:23:02.710Z,6.71
2023-04-27T03:25:36.261Z,6.69
2023-04-27T03:28:31.359Z,6.72
2023-04-27T03:31:44.883Z,6.71
2023-04-27T03:34:55.835Z,6.63
2023-04-27T03:37:46.330Z,6.55
2023-04-27T03:40:45.742Z,6.51
2023-04-27T03:43:44.126Z,6.42
2023-04-27T03:46:29.239Z,6.38
2023-04-27T03:49:26.380Z,6.41
2023-04-27T03:51:55.152Z,6.41
2023-04-27T03:54:30.785Z,6.38
2023-04-27T03:57:14.837Z,6.39
2023-04-27T03:59:57.218Z,6.40
2023-04-27T04:02:41.261Z,6.39
2023-04-27T04:05:59.232Z,6.40
2023-04-27T04:09:04.755Z,6.44
2023-04-27T04:11:33.364Z,6.48
2023-04-27T04:14:24.249Z,6.48
2023-04-27T04:17:12.332Z,6.46
2023-04-27T04:20:23.184Z,6.52
2023-04-27T04:23:13.199Z,6.50
2023-04-27T04:25:52.132Z,6.43
2023-04-27T04:29:29.835Z,6.46
2023-04-27T04:32:27.022Z,6.59
2023-04-27T04:35:35.253Z,6.62
2023-04-27T04:38:43.272Z,6.61
2023-04-27T04:42:23.584Z,6.65
2023-04-27T04:45:36.549Z,6.68
2023-04-27T04:48:27.647Z,6.68
2023-04-27T04:51:27.141Z,6.63
2023-04-27T04:54:22.429Z,6.68
2023-04-27T04:57:08.321Z,6.72
2023-04-27T05:00:06.781Z,6.73
2023-04-27T05:02:55.975Z,6.76
2023-04-27T05:05:28.875Z,6.75
2023-04-27T05:08:36.377Z,6.75
2023-04-27T05:11:05.625Z,6.78
2023-04-27T05:13:46.716Z,6.78
2023-04-27T05:16:44.228Z,6.78
2023-04-27T05:19:32.142Z,6.77
2023-04-27T05:22:42.711Z,6.78
2023-04-27T05:25:15.580Z,6.77
2023-04-27T05:27:49.281Z,6.76
2023-04-27T05:30:34.309Z,6.74
2023-04-27T05:33:07.625Z,6.71
2023-04-27T05:35:45.197Z,6.72
2023-04-27T05:38:40.285Z,6.75
2023-04-27T05:41:51.178Z,6.71
2023-04-27T05:44:42.004Z,6.75
2023-04-27T05:47:09.669Z,6.76
2023-04-27T05:49:53.725Z,6.75
2023-04-27T05:52:37.552Z,6.75
2023-04-27T05:55:39.124Z,6.76
2023-04-27T05:58:20.609Z,6.85
2023-04-27T06:01:18.682Z,6.93
2023-04-27T06:03:47.388Z,6.96
2023-04-27T06:06:18.221Z,6.94
2023-04-27T06:08:59.955Z,6.92
2023-04-27T06:11:38.948Z,6.91
2023-04-27T06:14:31.858Z,6.94
2023-04-27T06:17:11.279Z,6.96
2023-04-27T06:20:00.145Z,6.92
2023-04-27T06:22:50.261Z,6.81
2023-04-27T06:25:41.125Z,6.80
2023-04-27T06:28:09.288Z,6.84
2023-04-27T06:30:42.075Z,6.83
2023-04-27T06:33:23.504Z,6.81
2023-04-27T06:36:25.469Z,6.86
2023-04-27T06:38:55.970Z,6.91
2023-04-27T06:42:29.186Z,6.88
2023-04-27T06:45:20.005Z,6.90
2023-04-27T06:48:08.213Z,6.96
2023-04-27T06:50:46.348Z,7.00
2023-04-27T06:53:13.722Z,7.04
2023-04-27T06:55:43.954Z,7.05
2023-04-27T06:58:18.008Z,7.10
2023-04-27T07:00:54.124Z,7.13
2023-04-27T07:06:26.731Z,7.22
2023-04-27T07:08:57.102Z,7.31
2023-04-27T07:11:27.777Z,7.44
2023-04-27T07:13:55.645Z,7.58
2023-04-27T07:16:25.754Z,7.64
2023-04-27T07:18:53.290Z,7.61
2023-04-27T07:21:43.363Z,7.63
2023-04-27T07:24:34.720Z,7.72
2023-04-27T07:27:08.376Z,7.75
2023-04-27T07:29:54.943Z,7.75
2023-04-27T07:32:33.925Z,7.80
2023-04-27T07:35:15.043Z,7.93
2023-04-27T07:37:44.321Z,8.03
2023-04-27T07:40:16.926Z,8.10
2023-04-27T07:42:56.428Z,8.12
2023-04-27T07:45:31.971Z,8.23
2023-04-27T07:48:06.304Z,8.34
2023-04-27T07:50:36.853Z,8.33
2023-04-27T07:53:04.494Z,8.33
2023-04-27T07:55:35.567Z,8.36
2023-04-27T07:58:06.361Z,8.40
2023-04-27T08:00:33.398Z,8.43
2023-04-27T08:03:09.906Z,8.42
2023-04-27T08:05:43.526Z,8.40
2023-04-27T08:08:19.056Z,8.39
2023-04-27T08:10:50.581Z,8.40
2023-04-27T08:13:40.758Z,8.40
2023-04-27T08:16:08.253Z,8.40
2023-04-27T08:18:45.096Z,8.33
2023-04-27T08:21:12.551Z,8.25
2023-04-27T08:23:50.966Z,8.24
2023-04-27T08:26:18.512Z,8.22
2023-04-27T08:28:54.995Z,8.25
2023-04-27T08:31:25.174Z,8.29
2023-04-27T08:33:53.115Z,8.35
2023-04-27T08:36:24.637Z,8.43
2023-04-27T08:38:52.485Z,8.48
2023-04-27T08:41:24.072Z,8.47
2023-04-27T08:43:51.834Z,8.46
2023-04-27T08:46:22.871Z,8.46
2023-04-27T08:48:50.736Z,8.47
2023-04-27T08:51:21.431Z,8.47
2023-04-27T08:53:51.093Z,8.46
2023-04-27T08:56:19.062Z,8.48
2023-04-27T08:58:46.210Z,8.53
2023-04-27T09:01:13.881Z,8.56
2023-04-27T09:03:41.561Z,8.54
2023-04-27T09:06:09.349Z,8.54
2023-04-27T09:09:06.713Z,8.58
2023-04-27T09:11:35.133Z,8.62
2023-04-27T09:14:11.507Z,8.59
2023-04-27T09:16:39.036Z,8.52
2023-04-27T09:19:06.318Z,8.46
2023-04-27T09:21:36.643Z,8.45
2023-04-27T09:24:13.767Z,8.48
2023-04-27T09:26:43.211Z,8.48
2023-04-27T09:29:10.634Z,8.44
2023-04-27T09:31:54.296Z,8.40
2023-04-27T09:34:41.405Z,8.38
2023-04-27T09:37:08.595Z,8.36
2023-04-27T09:39:35.849Z,8.39
2023-04-27T09:42:04.609Z,8.41
2023-04-27T09:44:32.300Z,8.36
2023-04-27T09:47:00.173Z,8.28
2023-04-27T09:49:29.300Z,8.22
2023-04-27T09:51:58.999Z,8.22
2023-04-27T09:54:28.482Z,8.24
2023-04-27T09:56:58.704Z,8.25
2023-04-27T09:59:48.007Z,8.24
2023-04-27T10:02:25.264Z,8.24
2023-04-27T10:05:00.535Z,8.30
2023-04-27T10:07:27.754Z,8.34
2023-04-27T10:09:56.230Z,8.34
2023-04-27T10:12:27.359Z,8.29
2023-04-27T10:14:57.604Z,8.23
2023-04-27T10:17:32.260Z,8.16
2023-04-27T10:20:01.251Z,8.06
2023-04-27T10:22:47.926Z,8.00
2023-04-27T10:25:24.622Z,7.95
2023-04-27T10:27:53.620Z,7.96
2023-04-27T10:30:21.692Z,8.01
2023-04-27T10:32:59.081Z,8.04
2023-04-27T10:35:33.396Z,8.05
2023-04-27T10:38:21.374Z,8.05
2023-04-27T10:40:57.242Z,8.07
2023-04-27T10:43:27.317Z,8.11
2023-04-27T10:45:54.679Z,8.11
2023-04-27T10:49:03.136Z,8.10
2023-04-27T10:51:30.123Z,8.10
2023-04-27T10:53:57.161Z,8.14
2023-04-27T10:56:25.543Z,8.16
2023-04-27T10:58:53.612Z,8.15
2023-04-27T11:01:25.776Z,8.14
2023-04-27T11:03:59.049Z,8.09
2023-04-27T11:06:26.531Z,8.05
2023-04-27T11:08:54.008Z,8.06
2023-04-27T11:11:21.150Z,8.03
2023-04-27T11:13:49.646Z,8.01
2023-04-27T11:16:19.503Z,8.03
2023-04-27T11:18:47.095Z,8.04
2023-04-27T11:21:16.120Z,8.05
2023-04-27T11:23:44.173Z,8.08
2023-04-27T11:26:17.868Z,8.07
2023-04-27T11:29:06.114Z,8.08
2023-04-27T11:31:47.862Z,8.15
2023-04-27T11:34:24.575Z,8.20
2023-04-27T11:37:10.651Z,8.13
2023-04-27T11:39:42.227Z,8.08
2023-04-27T11:42:35.759Z,8.11
2023-04-27T11:45:07.144Z,8.22
2023-04-27T11:47:36.267Z,8.26
2023-04-27T11:50:05.422Z,8.25
2023-04-27T11:52:33.314Z,8.22
2023-04-27T11:55:00.871Z,8.17
2023-04-27T11:57:33.961Z,8.18
2023-04-27T12:00:02.777Z,8.23
2023-04-27T12:02:40.868Z,8.21
2023-04-27T12:05:10.160Z,8.16
2023-04-27T12:07:37.641Z,8.15
2023-04-27T12:10:07.052Z,8.15
2023-04-27T12:12:34.885Z,8.15
2023-04-27T12:15:06.824Z,8.14
2023-04-27T12:17:35.452Z,8.11
2023-04-27T12:20:02.617Z,8.13
2023-04-27T12:22:29.935Z,8.21
2023-04-27T12:24:58.515Z,8.32
2023-04-27T12:27:26.834Z,8.41
2023-04-27T12:29:59.817Z,8.49
2023-04-27T12:32:28.167Z,8.50
2023-04-27T12:34:58.075Z,8.54
2023-04-27T12:37:27.002Z,8.58
2023-04-27T12:39:55.247Z,8.59
2023-04-27T12:42:24.490Z,8.59
2023-04-27T12:44:52.924Z,8.57
2023-04-27T12:47:45.823Z,8.56
2023-04-27T12:50:11.436Z,8.57
2023-04-27T12:52:38.502Z,8.56
2023-04-27T12:55:10.918Z,8.49
2023-04-27T12:58:38.325Z,8.38
2023-04-27T13:01:12.497Z,8.30
2023-04-27T13:03:40.095Z,8.33
2023-04-27T13:06:08.538Z,8.33
2023-04-27T13:08:37.321Z,8.31
2023-04-27T13:11:04.631Z,8.30
2023-04-27T13:13:32.114Z,8.30
2023-04-27T13:15:59.437Z,8.32
2023-04-27T13:18:26.592Z,8.35
2023-04-27T13:20:53.742Z,8.32
2023-04-27T13:23:20.758Z,8.24
2023-04-27T13:25:47.898Z,8.17
2023-04-27T13:28:14.963Z,8.14
2023-04-27T13:30:42.304Z,8.09
2023-04-27T13:33:22.525Z,8.04
2023-04-27T13:35:53.658Z,8.04
2023-04-27T13:38:21.016Z,8.02
2023-04-27T13:40:48.282Z,8.06
2023-04-27T13:43:15.210Z,8.10
2023-04-27T13:45:43.189Z,8.14
2023-04-27T13:48:10.697Z,8.24
2023-04-27T13:50:37.992Z,8.31
2023-04-27T13:53:05.260Z,8.36
2023-04-27T13:55:32.597Z,8.42
2023-04-27T13:57:59.753Z,8.48
2023-04-27T14:00:28.957Z,8.54
2023-04-27T14:02:56.208Z,8.60
2023-04-27T14:05:23.454Z,8.62
2023-04-27T14:07:50.617Z,8.66
2023-04-27T14:10:17.968Z,8.69
2023-04-27T14:12:45.294Z,8.72
2023-04-27T14:15:12.781Z,8.72
2023-04-27T14:17:39.940Z,8.71
2023-04-27T14:20:08.064Z,8.68
2023-04-27T14:22:36.183Z,8.62
2023-04-27T14:25:03.647Z,8.53
2023-04-27T14:27:30.785Z,8.47
2023-04-27T14:29:58.655Z,8.40
2023-04-27T14:32:26.515Z,8.36
2023-04-27T14:34:54.192Z,8.32
2023-04-27T14:37:21.641Z,8.30
2023-04-27T14:39:48.957Z,8.33
2023-04-27T14:42:16.722Z,8.40
2023-04-27T14:44:45.148Z,8.45
2023-04-27T14:47:12.261Z,8.46
2023-04-27T14:49:39.338Z,8.47
2023-04-27T14:52:08.077Z,8.52
2023-04-27T14:54:35.941Z,8.57
2023-04-27T14:57:03.301Z,8.61
2023-04-27T14:59:30.862Z,8.63
2023-04-27T15:01:57.944Z,8.65
2023-04-27T15:04:25.195Z,8.69
2023-04-27T15:06:54.926Z,8.70
2023-04-27T15:09:22.223Z,8.73
2023-04-27T15:11:49.271Z,8.77
2023-04-27T15:14:17.243Z,8.75
2023-04-27T15:16:44.290Z,8.72
2023-04-27T15:19:12.153Z,8.70
2023-04-27T15:21:40.124Z,8.70
2023-04-27T15:24:07.401Z,8.74
2023-04-27T15:26:34.331Z,8.77
2023-04-27T15:29:04.853Z,8.78
2023-04-27T15:31:32.068Z,8.76
2023-04-27T15:33:59.257Z,8.74
2023-04-27T15:36:28.889Z,8.75
2023-04-27T15:38:56.427Z,8.81
2023-04-27T15:41:23.650Z,8.87
2023-04-27T15:43:51.577Z,8.88
2023-04-27T15:46:19.191Z,8.85
2023-04-27T15:48:46.869Z,8.80
2023-04-27T15:51:13.933Z,8.76
2023-04-27T15:53:40.858Z,8.73
2023-04-27T15:56:07.821Z,8.71
2023-04-27T15:58:34.853Z,8.71
2023-04-27T16:01:02.112Z,8.68
2023-04-27T16:03:29.383Z,8.65
2023-04-27T16:05:59.580Z,8.62
2023-04-27T16:08:28.170Z,8.63
2023-04-27T16:10:56.047Z,8.67
2023-04-27T16:13:24.104Z,8.69
2023-04-27T16:15:51.460Z,8.67
2023-04-27T16:18:18.514Z,8.64
2023-04-27T16:20:46.784Z,8.61
2023-04-27T16:23:14.047Z,8.58
2023-04-27T16:25:41.661Z,8.59
2023-04-27T16:28:12.844Z,8.61
2023-04-27T16:30:39.913Z,8.60
2023-04-27T16:33:06.912Z,8.58
2023-04-27T16:35:36.136Z,8.53
2023-04-27T16:38:05.972Z,8.48
2023-04-27T16:40:34.062Z,8.48
2023-04-27T16:43:02.514Z,8.54
2023-04-27T16:45:29.669Z,8.59
2023-04-27T16:47:57.303Z,8.59
2023-04-27T16:50:25.600Z,8.57
2023-04-27T16:52:52.745Z,8.53
2023-04-27T16:55:19.895Z,8.51
2023-04-27T16:57:50.931Z,8.52
2023-04-27T17:00:18.393Z,8.55
2023-04-27T17:02:45.298Z,8.55
2023-04-27T17:05:13.984Z,8.52
2023-04-27T17:07:41.176Z,8.49
2023-04-27T17:10:09.417Z,8.49
2023-04-27T17:12:37.728Z,8.53
2023-04-27T17:15:05.887Z,8.57
2023-04-27T17:17:34.311Z,8.56
2023-04-27T17:20:01.530Z,8.53
2023-04-27T17:22:30.221Z,8.47
2023-04-27T17:24:57.827Z,8.44
2023-04-27T17:27:25.962Z,8.44
2023-04-27T17:29:54.041Z,8.48
2023-04-27T17:32:21.212Z,8.52
2023-04-27T17:34:49.054Z,8.52
2023-04-27T17:37:16.503Z,8.51
2023-04-27T17:39:43.554Z,8.49
2023-04-27T17:42:12.804Z,8.48
2023-04-27T17:44:42.531Z,8.48
2023-04-27T17:47:09.820Z,8.52
2023-04-27T17:49:38.521Z,8.57
2023-04-27T17:52:05.866Z,8.58
2023-04-27T17:54:33.426Z,8.57
2023-04-27T17:57:00.911Z,8.51
2023-04-27T17:59:29.161Z,8.47
2023-04-27T18:01:59.296Z,8.47
2023-04-27T18:04:27.080Z,8.49
2023-04-27T18:06:54.493Z,8.51
2023-04-27T18:09:21.531Z,8.53
2023-04-27T18:11:48.739Z,8.51
2023-04-27T18:14:21.688Z,8.47
2023-04-27T18:16:51.366Z,8.44
2023-04-27T18:19:18.613Z,8.45
2023-04-27T18:21:46.556Z,8.49
2023-04-27T18:24:13.812Z,8.52
2023-04-27T18:26:41.169Z,8.52
2023-04-27T18:29:08.422Z,8.50
2023-04-27T18:31:36.388Z,8.47
2023-04-27T18:34:03.846Z,8.47
2023-04-27T18:36:31.810Z,8.50
2023-04-27T18:39:01.337Z,8.52
2023-04-27T18:41:29.800Z,8.52
2023-04-27T18:44:03.778Z,8.50
2023-04-27T18:46:31.062Z,8.45
2023-04-27T18:48:58.511Z,8.40
2023-04-27T18:51:26.588Z,8.39
2023-04-27T18:53:57.455Z,8.42
2023-04-27T18:56:35.127Z,8.43
2023-04-27T18:59:05.153Z,8.42
2023-04-27T19:01:32.528Z,8.39
2023-04-27T19:04:03.002Z,8.36
2023-04-27T19:06:31.600Z,8.33
2023-04-27T19:08:58.768Z,8.33
2023-04-27T19:11:26.135Z,8.37
2023-04-27T19:13:54.189Z,8.41
2023-04-27T19:16:23.304Z,8.42
2023-04-27T19:18:50.659Z,8.40
2023-04-27T19:21:17.906Z,8.35
2023-04-27T19:23:46.587Z,8.28
2023-04-27T19:26:14.365Z,8.28
2023-04-27T19:28:41.815Z,8.29
2023-04-27T19:31:09.036Z,8.28
2023-04-27T19:33:36.413Z,8.24
2023-04-27T19:36:04.009Z,8.20
2023-04-27T19:38:33.605Z,8.18
2023-04-27T19:41:00.841Z,8.20
2023-04-27T19:43:29.419Z,8.22
2023-04-27T19:45:57.120Z,8.23
2023-04-27T19:48:24.332Z,8.21
2023-04-27T19:50:51.822Z,8.21
2023-04-27T19:53:19.452Z,8.17
2023-04-27T19:55:46.829Z,8.18
2023-04-27T19:58:14.984Z,8.18
2023-04-27T20:00:42.152Z,8.23
2023-04-27T20:03:09.376Z,8.24
2023-04-27T20:05:37.865Z,8.23
2023-04-27T20:08:05.333Z,8.20
2023-04-27T20:10:33.296Z,8.18
2023-04-27T20:13:00.749Z,8.18
2023-04-27T20:15:27.801Z,8.19
2023-04-27T20:17:55.229Z,8.19
2023-04-27T20:20:22.686Z,8.16
2023-04-27T20:22:49.785Z,8.11
2023-04-27T20:25:17.218Z,8.13
2023-04-27T20:27:44.368Z,8.18
2023-04-27T20:30:11.820Z,8.22
2023-04-27T20:32:41.652Z,8.24
2023-04-27T20:35:11.733Z,8.22
2023-04-27T20:37:39.459Z,8.17
2023-04-27T20:40:07.960Z,8.14
2023-04-27T20:42:39.048Z,8.18
2023-04-27T20:45:07.164Z,8.21
2023-04-27T20:47:34.298Z,8.19
2023-04-27T20:50:04.295Z,8.16
2023-04-27T20:52:33.809Z,8.10
2023-04-27T20:55:05.869Z,8.09
2023-04-27T20:57:36.311Z,8.13
2023-04-27T21:00:04.385Z,8.15
2023-04-27T21:02:31.546Z,8.14
2023-04-27T21:04:58.661Z,8.12
2023-04-27T21:07:26.954Z,8.08
2023-04-27T21:09:54.085Z,8.07
2023-04-27T21:12:21.136Z,8.07
2023-04-27T21:14:48.286Z,8.07
2023-04-27T21:17:15.605Z,8.04
2023-04-27T21:19:42.685Z,8.01
2023-04-27T21:22:09.636Z,7.98
2023-04-27T21:24:36.812Z,7.97
2023-04-27T21:27:04.088Z,8.03
2023-04-27T21:29:31.529Z,8.06
2023-04-27T21:31:58.571Z,8.05
2023-04-27T21:34:25.596Z,8.03
2023-04-27T21:36:52.743Z,7.99
2023-04-27T21:39:19.796Z,7.96
2023-04-27T21:41:46.944Z,7.95
2023-04-27T21:44:14.612Z,7.99
2023-04-27T21:46:42.650Z,8.00
2023-04-27T21:49:09.851Z,7.98
2023-04-27T21:51:37.178Z,7.95
2023-04-27T21:54:04.431Z,7.92
2023-04-27T21:56:31.379Z,7.88
2023-04-27T21:58:58.430Z,7.86
2023-04-27T22:01:27.161Z,7.87
2023-04-27T22:03:54.536Z,7.85
2023-04-27T22:06:22.235Z,7.82
2023-04-27T22:08:49.412Z,7.79
2023-04-27T22:11:17.133Z,7.74
2023-04-27T22:13:45.223Z,7.75
2023-04-27T22:16:13.797Z,7.78
2023-04-27T22:18:41.729Z,7.78
2023-04-27T22:21:10.385Z,7.77
2023-04-27T22:23:37.540Z,7.75
2023-04-27T22:26:05.147Z,7.72
2023-04-27T22:28:32.866Z,7.73
2023-04-27T22:31:03.987Z,7.77
2023-04-27T22:33:32.179Z,7.79
2023-04-27T22:35:59.568Z,7.79
2023-04-27T22:38:26.774Z,7.77
2023-04-27T22:40:53.849Z,7.73
2023-04-27T22:43:20.997Z,7.68
2023-04-27T22:45:50.402Z,7.64
2023-04-27T22:48:17.350Z,7.64
2023-04-27T22:50:46.135Z,7.68
2023-04-27T22:53:13.193Z,7.71
2023-04-27T22:55:40.426Z,7.69
2023-04-27T22:58:07.689Z,7.67
2023-04-27T23:00:34.835Z,7.63
2023-04-27T23:03:02.197Z,7.59
2023-04-27T23:07:58.897Z,7.52
2023-04-27T23:10:27.030Z,7.48
2023-04-27T23:12:55.198Z,7.50
2023-04-27T23:15:24.226Z,7.53
2023-04-27T23:17:51.622Z,7.53
2023-04-27T23:20:27.919Z,7.52
2023-04-27T23:22:56.055Z,7.48
2023-04-27T23:25:23.355Z,7.44
2023-04-27T23:27:52.146Z,7.40
2023-04-27T23:30:21.049Z,7.40
2023-04-27T23:32:48.645Z,7.42
2023-04-27T23:35:15.928Z,7.43
2023-04-27T23:37:44.102Z,7.44
2023-04-27T23:40:12.476Z,7.42
2023-04-27T23:42:39.436Z,7.39
2023-04-27T23:45:07.735Z,7.36
2023-04-27T23:47:34.873Z,7.33
2023-04-27T23:50:03.952Z,7.33
2023-04-27T23:52:30.980Z,7.35
2023-04-27T23:54:59.256Z,7.34
2023-04-27T23:57:26.513Z,7.32
2023-04-27T23:59:53.582Z,7.31
